sensor_id;sensor_type;location;lat;lon;timestamp;temperature;humidity
13440;DHT22;6792;57.698;11.946;2023-03-16T00:00:22;8.50;46.80
13440;DHT22;6792;57.698;11.946;2023-03-16T00:02:51;8.50;46.80
13440;DHT22;6792;57.698;11.946;2023-03-16T00:05:20;8.50;46.90
13440;DHT22;6792;57.698;11.946;2023-03-16T00:07:50;8.40;47.00
13440;DHT22;6792;57.698;11.946;2023-03-16T00:10:20;8.40;47.10
13440;DHT22;6792;57.698;11.946;2023-03-16T00:12:51;8.40;47.10
13440;DHT22;6792;57.698;11.946;2023-03-16T00:15:21;8.40;47.10
13440;DHT22;6792;57.698;11.946;2023-03-16T00:17:50;8.30;47.10
13440;DHT22;6792;57.698;11.946;2023-03-16T00:20:19;8.30;46.50
13440;DHT22;6792;57.698;11.946;2023-03-16T00:22:49;8.30;47.10
13440;DHT22;6792;57.698;11.946;2023-03-16T00:25:18;8.30;47.10
13440;DHT22;6792;57.698;11.946;2023-03-16T00:27:47;8.20;47.00
13440;DHT22;6792;57.698;11.946;2023-03-16T00:30:17;8.30;47.10
13440;DHT22;6792;57.698;11.946;2023-03-16T00:32:47;8.20;47.00
13440;DHT22;6792;57.698;11.946;2023-03-16T00:35:17;8.20;47.10
13440;DHT22;6792;57.698;11.946;2023-03-16T00:37:46;8.10;46.60
13440;DHT22;6792;57.698;11.946;2023-03-16T00:40:15;8.10;47.20
13440;DHT22;6792;57.698;11.946;2023-03-16T00:42:46;8.10;47.40
13440;DHT22;6792;57.698;11.946;2023-03-16T00:45:15;8.10;47.50
13440;DHT22;6792;57.698;11.946;2023-03-16T00:47:45;8.10;47.40
13440;DHT22;6792;57.698;11.946;2023-03-16T00:50:14;8.10;47.50
13440;DHT22;6792;57.698;11.946;2023-03-16T00:52:43;8.00;47.40
13440;DHT22;6792;57.698;11.946;2023-03-16T00:55:12;8.00;47.40
13440;DHT22;6792;57.698;11.946;2023-03-16T00:57:41;8.00;47.50
13440;DHT22;6792;57.698;11.946;2023-03-16T01:00:13;8.00;47.50
13440;DHT22;6792;57.698;11.946;2023-03-16T01:02:43;8.00;47.60
13440;DHT22;6792;57.698;11.946;2023-03-16T01:05:13;8.00;47.60
13440;DHT22;6792;57.698;11.946;2023-03-16T01:07:42;7.90;47.60
13440;DHT22;6792;57.698;11.946;2023-03-16T01:10:12;7.90;47.70
13440;DHT22;6792;57.698;11.946;2023-03-16T01:12:41;7.90;47.00
13440;DHT22;6792;57.698;11.946;2023-03-16T01:15:13;7.90;47.60
13440;DHT22;6792;57.698;11.946;2023-03-16T01:17:42;7.90;47.60
13440;DHT22;6792;57.698;11.946;2023-03-16T01:20:12;7.80;47.60
13440;DHT22;6792;57.698;11.946;2023-03-16T01:22:43;7.80;47.60
13440;DHT22;6792;57.698;11.946;2023-03-16T01:25:12;7.80;47.60
13440;DHT22;6792;57.698;11.946;2023-03-16T01:27:42;7.80;48.20
13440;DHT22;6792;57.698;11.946;2023-03-16T01:30:12;7.80;47.70
13440;DHT22;6792;57.698;11.946;2023-03-16T01:32:41;7.80;47.70
13440;DHT22;6792;57.698;11.946;2023-03-16T01:35:11;7.70;47.50
13440;DHT22;6792;57.698;11.946;2023-03-16T01:37:40;7.70;47.60
13440;DHT22;6792;57.698;11.946;2023-03-16T01:40:11;7.70;47.60
13440;DHT22;6792;57.698;11.946;2023-03-16T01:42:48;7.70;47.60
13440;DHT22;6792;57.698;11.946;2023-03-16T01:48:22;7.60;47.30
13440;DHT22;6792;57.698;11.946;2023-03-16T01:50:53;7.40;48.10
13440;DHT22;6792;57.698;11.946;2023-03-16T01:53:23;7.40;48.10
13440;DHT22;6792;57.698;11.946;2023-03-16T01:55:53;7.40;48.10
13440;DHT22;6792;57.698;11.946;2023-03-16T01:58:23;7.40;47.90
13440;DHT22;6792;57.698;11.946;2023-03-16T02:00:52;7.40;47.90
13440;DHT22;6792;57.698;11.946;2023-03-16T02:03:22;7.50;47.90
13440;DHT22;6792;57.698;11.946;2023-03-16T02:05:53;7.40;47.80
13440;DHT22;6792;57.698;11.946;2023-03-16T02:08:24;7.40;47.70
13440;DHT22;6792;57.698;11.946;2023-03-16T02:10:55;7.40;47.80
13440;DHT22;6792;57.698;11.946;2023-03-16T02:13:25;7.30;47.80
13440;DHT22;6792;57.698;11.946;2023-03-16T02:15:56;7.30;47.30
13440;DHT22;6792;57.698;11.946;2023-03-16T02:18:25;7.30;47.90
13440;DHT22;6792;57.698;11.946;2023-03-16T02:21:01;7.30;47.90
13440;DHT22;6792;57.698;11.946;2023-03-16T02:23:30;7.30;47.30
13440;DHT22;6792;57.698;11.946;2023-03-16T02:26:02;7.30;47.90
13440;DHT22;6792;57.698;11.946;2023-03-16T02:28:34;7.30;47.40
13440;DHT22;6792;57.698;11.946;2023-03-16T02:31:05;7.20;47.40
13440;DHT22;6792;57.698;11.946;2023-03-16T02:33:35;7.20;48.00
13440;DHT22;6792;57.698;11.946;2023-03-16T02:36:05;7.20;48.00
13440;DHT22;6792;57.698;11.946;2023-03-16T02:38:34;7.20;48.00
13440;DHT22;6792;57.698;11.946;2023-03-16T02:41:09;7.10;48.00
13440;DHT22;6792;57.698;11.946;2023-03-16T02:43:41;7.10;48.00
13440;DHT22;6792;57.698;11.946;2023-03-16T02:46:11;7.10;48.10
13440;DHT22;6792;57.698;11.946;2023-03-16T02:48:44;7.10;48.10
13440;DHT22;6792;57.698;11.946;2023-03-16T02:51:13;7.10;48.20
13440;DHT22;6792;57.698;11.946;2023-03-16T02:53:43;7.10;48.20
13440;DHT22;6792;57.698;11.946;2023-03-16T02:56:12;7.00;47.60
13440;DHT22;6792;57.698;11.946;2023-03-16T02:58:41;7.00;48.20
13440;DHT22;6792;57.698;11.946;2023-03-16T03:01:10;7.00;48.10
13440;DHT22;6792;57.698;11.946;2023-03-16T03:03:39;7.00;48.00
13440;DHT22;6792;57.698;11.946;2023-03-16T03:06:08;7.00;48.00
13440;DHT22;6792;57.698;11.946;2023-03-16T03:08:37;7.00;48.10
13440;DHT22;6792;57.698;11.946;2023-03-16T03:11:06;7.00;48.20
13440;DHT22;6792;57.698;11.946;2023-03-16T03:13:35;7.00;48.10
13440;DHT22;6792;57.698;11.946;2023-03-16T03:16:06;7.00;48.00
13440;DHT22;6792;57.698;11.946;2023-03-16T03:18:35;6.90;48.10
13440;DHT22;6792;57.698;11.946;2023-03-16T03:21:05;6.90;48.20
13440;DHT22;6792;57.698;11.946;2023-03-16T03:23:34;6.90;48.20
13440;DHT22;6792;57.698;11.946;2023-03-16T03:26:04;6.90;48.30
13440;DHT22;6792;57.698;11.946;2023-03-16T03:28:33;6.90;47.60
13440;DHT22;6792;57.698;11.946;2023-03-16T03:31:02;6.90;48.10
13440;DHT22;6792;57.698;11.946;2023-03-16T03:33:31;6.90;48.00
13440;DHT22;6792;57.698;11.946;2023-03-16T03:36:01;6.90;48.00
13440;DHT22;6792;57.698;11.946;2023-03-16T03:38:30;6.90;48.10
13440;DHT22;6792;57.698;11.946;2023-03-16T03:40:59;6.80;48.00
13440;DHT22;6792;57.698;11.946;2023-03-16T03:43:28;6.80;48.00
13440;DHT22;6792;57.698;11.946;2023-03-16T03:45:57;6.80;48.00
13440;DHT22;6792;57.698;11.946;2023-03-16T03:48:27;6.80;48.10
13440;DHT22;6792;57.698;11.946;2023-03-16T03:50:58;6.70;48.00
13440;DHT22;6792;57.698;11.946;2023-03-16T03:53:27;6.70;48.00
13440;DHT22;6792;57.698;11.946;2023-03-16T03:55:56;6.70;48.20
13440;DHT22;6792;57.698;11.946;2023-03-16T03:58:25;6.70;48.20
13440;DHT22;6792;57.698;11.946;2023-03-16T04:00:54;6.70;48.20
13440;DHT22;6792;57.698;11.946;2023-03-16T04:03:23;6.60;48.80
13440;DHT22;6792;57.698;11.946;2023-03-16T04:05:52;6.70;48.30
13440;DHT22;6792;57.698;11.946;2023-03-16T04:08:21;6.60;47.60
13440;DHT22;6792;57.698;11.946;2023-03-16T04:10:50;6.60;48.30
13440;DHT22;6792;57.698;11.946;2023-03-16T04:13:19;6.60;48.20
13440;DHT22;6792;57.698;11.946;2023-03-16T04:15:49;6.60;48.20
13440;DHT22;6792;57.698;11.946;2023-03-16T04:18:21;6.50;48.30
13440;DHT22;6792;57.698;11.946;2023-03-16T04:20:50;6.60;48.40
13440;DHT22;6792;57.698;11.946;2023-03-16T04:23:21;6.50;48.30
13440;DHT22;6792;57.698;11.946;2023-03-16T04:25:51;6.50;48.30
13440;DHT22;6792;57.698;11.946;2023-03-16T04:28:21;6.50;48.30
13440;DHT22;6792;57.698;11.946;2023-03-16T04:30:52;6.50;48.30
13440;DHT22;6792;57.698;11.946;2023-03-16T04:33:21;6.50;48.30
13440;DHT22;6792;57.698;11.946;2023-03-16T04:35:50;6.50;48.20
13440;DHT22;6792;57.698;11.946;2023-03-16T04:38:19;6.50;48.10
13440;DHT22;6792;57.698;11.946;2023-03-16T04:40:48;6.50;48.00
13440;DHT22;6792;57.698;11.946;2023-03-16T04:43:17;6.50;48.00
13440;DHT22;6792;57.698;11.946;2023-03-16T04:45:47;6.50;48.00
13440;DHT22;6792;57.698;11.946;2023-03-16T04:48:16;6.50;48.10
13440;DHT22;6792;57.698;11.946;2023-03-16T04:50:45;6.50;48.10
13440;DHT22;6792;57.698;11.946;2023-03-16T04:53:18;6.40;48.10
13440;DHT22;6792;57.698;11.946;2023-03-16T04:55:47;6.40;48.20
13440;DHT22;6792;57.698;11.946;2023-03-16T04:58:16;6.40;48.10
13440;DHT22;6792;57.698;11.946;2023-03-16T05:00:45;6.40;48.20
13440;DHT22;6792;57.698;11.946;2023-03-16T05:03:16;6.40;47.50
13440;DHT22;6792;57.698;11.946;2023-03-16T05:05:46;6.40;48.00
13440;DHT22;6792;57.698;11.946;2023-03-16T05:08:16;6.40;48.10
13440;DHT22;6792;57.698;11.946;2023-03-16T05:10:45;6.30;48.10
13440;DHT22;6792;57.698;11.946;2023-03-16T05:13:15;6.30;48.10
13440;DHT22;6792;57.698;11.946;2023-03-16T05:15:44;6.40;48.20
13440;DHT22;6792;57.698;11.946;2023-03-16T05:18:13;6.40;48.20
13440;DHT22;6792;57.698;11.946;2023-03-16T05:20:42;6.40;48.20
13440;DHT22;6792;57.698;11.946;2023-03-16T05:23:12;6.40;48.20
13440;DHT22;6792;57.698;11.946;2023-03-16T05:25:41;6.30;48.10
13440;DHT22;6792;57.698;11.946;2023-03-16T05:28:10;6.40;48.10
13440;DHT22;6792;57.698;11.946;2023-03-16T05:30:39;6.40;48.10
13440;DHT22;6792;57.698;11.946;2023-03-16T05:33:09;6.40;48.20
13440;DHT22;6792;57.698;11.946;2023-03-16T05:35:38;6.30;47.60
13440;DHT22;6792;57.698;11.946;2023-03-16T05:38:07;6.40;48.20
13440;DHT22;6792;57.698;11.946;2023-03-16T05:40:36;6.40;48.10
13440;DHT22;6792;57.698;11.946;2023-03-16T05:43:05;6.40;48.20
13440;DHT22;6792;57.698;11.946;2023-03-16T05:45:34;6.40;48.20
13440;DHT22;6792;57.698;11.946;2023-03-16T05:48:03;6.30;48.10
13440;DHT22;6792;57.698;11.946;2023-03-16T05:50:33;6.40;48.20
13440;DHT22;6792;57.698;11.946;2023-03-16T05:53:02;6.30;48.10
13440;DHT22;6792;57.698;11.946;2023-03-16T05:55:33;6.30;48.00
13440;DHT22;6792;57.698;11.946;2023-03-16T05:58:02;6.30;48.00
13440;DHT22;6792;57.698;11.946;2023-03-16T06:00:31;6.30;48.00
13440;DHT22;6792;57.698;11.946;2023-03-16T06:03:00;6.30;48.00
13440;DHT22;6792;57.698;11.946;2023-03-16T06:05:30;6.30;48.50
13440;DHT22;6792;57.698;11.946;2023-03-16T06:08:00;6.30;48.00
13440;DHT22;6792;57.698;11.946;2023-03-16T06:10:29;6.30;48.00
13440;DHT22;6792;57.698;11.946;2023-03-16T06:12:58;6.30;48.10
13440;DHT22;6792;57.698;11.946;2023-03-16T06:15:27;6.30;48.10
13440;DHT22;6792;57.698;11.946;2023-03-16T06:17:57;6.20;48.10
13440;DHT22;6792;57.698;11.946;2023-03-16T06:20:26;6.20;48.00
13440;DHT22;6792;57.698;11.946;2023-03-16T06:22:55;6.20;48.00
13440;DHT22;6792;57.698;11.946;2023-03-16T06:25:24;6.20;48.10
13440;DHT22;6792;57.698;11.946;2023-03-16T06:27:53;6.20;48.10
13440;DHT22;6792;57.698;11.946;2023-03-16T06:30:22;6.20;48.20
13440;DHT22;6792;57.698;11.946;2023-03-16T06:32:51;6.20;47.70
13440;DHT22;6792;57.698;11.946;2023-03-16T06:35:21;6.30;48.80
13440;DHT22;6792;57.698;11.946;2023-03-16T06:37:50;6.30;47.70
13440;DHT22;6792;57.698;11.946;2023-03-16T06:40:21;6.30;48.20
13440;DHT22;6792;57.698;11.946;2023-03-16T06:42:50;6.30;47.70
13440;DHT22;6792;57.698;11.946;2023-03-16T06:45:19;6.30;48.30
13440;DHT22;6792;57.698;11.946;2023-03-16T06:47:48;6.40;48.30
13440;DHT22;6792;57.698;11.946;2023-03-16T06:50:18;6.40;48.30
13440;DHT22;6792;57.698;11.946;2023-03-16T06:52:47;6.40;48.30
13440;DHT22;6792;57.698;11.946;2023-03-16T06:55:17;6.50;48.40
13440;DHT22;6792;57.698;11.946;2023-03-16T06:57:46;6.50;48.40
13440;DHT22;6792;57.698;11.946;2023-03-16T07:00:16;6.50;48.40
13440;DHT22;6792;57.698;11.946;2023-03-16T07:02:45;6.60;48.50
13440;DHT22;6792;57.698;11.946;2023-03-16T07:05:15;6.70;47.90
13440;DHT22;6792;57.698;11.946;2023-03-16T07:07:44;6.70;49.00
13440;DHT22;6792;57.698;11.946;2023-03-16T07:10:15;6.80;48.40
13440;DHT22;6792;57.698;11.946;2023-03-16T07:12:44;6.80;48.30
13440;DHT22;6792;57.698;11.946;2023-03-16T07:15:14;6.80;48.20
13440;DHT22;6792;57.698;11.946;2023-03-16T07:17:43;6.90;48.20
13440;DHT22;6792;57.698;11.946;2023-03-16T07:20:13;6.90;47.70
13440;DHT22;6792;57.698;11.946;2023-03-16T07:22:42;7.00;48.30
13440;DHT22;6792;57.698;11.946;2023-03-16T07:25:11;7.00;47.70
13440;DHT22;6792;57.698;11.946;2023-03-16T07:27:40;7.10;47.80
13440;DHT22;6792;57.698;11.946;2023-03-16T07:30:12;7.20;48.30
13440;DHT22;6792;57.698;11.946;2023-03-16T07:32:42;7.20;48.30
13440;DHT22;6792;57.698;11.946;2023-03-16T07:35:11;7.30;48.30
13440;DHT22;6792;57.698;11.946;2023-03-16T07:37:40;7.30;48.20
13440;DHT22;6792;57.698;11.946;2023-03-16T07:40:12;7.40;48.20
13440;DHT22;6792;57.698;11.946;2023-03-16T07:42:41;7.40;48.10
13440;DHT22;6792;57.698;11.946;2023-03-16T07:45:11;7.40;48.20
13440;DHT22;6792;57.698;11.946;2023-03-16T07:47:41;7.50;48.10
13440;DHT22;6792;57.698;11.946;2023-03-16T07:50:11;7.50;48.10
13440;DHT22;6792;57.698;11.946;2023-03-16T07:52:42;7.50;48.10
13440;DHT22;6792;57.698;11.946;2023-03-16T07:55:13;7.60;47.50
13440;DHT22;6792;57.698;11.946;2023-03-16T07:57:42;7.60;48.20
13440;DHT22;6792;57.698;11.946;2023-03-16T08:00:15;7.70;48.20
13440;DHT22;6792;57.698;11.946;2023-03-16T08:02:46;7.70;48.10
13440;DHT22;6792;57.698;11.946;2023-03-16T08:05:15;7.80;48.10
13440;DHT22;6792;57.698;11.946;2023-03-16T08:07:44;7.90;48.00
13440;DHT22;6792;57.698;11.946;2023-03-16T08:10:13;8.00;48.10
13440;DHT22;6792;57.698;11.946;2023-03-16T08:12:42;8.10;48.00
13440;DHT22;6792;57.698;11.946;2023-03-16T08:15:12;8.20;48.00
13440;DHT22;6792;57.698;11.946;2023-03-16T08:17:42;8.20;47.90
13440;DHT22;6792;57.698;11.946;2023-03-16T08:20:14;8.30;47.90
13440;DHT22;6792;57.698;11.946;2023-03-16T08:22:46;8.40;47.20
13440;DHT22;6792;57.698;11.946;2023-03-16T08:25:16;8.50;47.80
13440;DHT22;6792;57.698;11.946;2023-03-16T08:27:49;8.60;47.60
13440;DHT22;6792;57.698;11.946;2023-03-16T08:30:19;8.70;47.60
13440;DHT22;6792;57.698;11.946;2023-03-16T08:32:49;8.70;47.40
13440;DHT22;6792;57.698;11.946;2023-03-16T08:35:19;8.80;47.30
13440;DHT22;6792;57.698;11.946;2023-03-16T08:37:48;8.90;47.10
13440;DHT22;6792;57.698;11.946;2023-03-16T08:40:18;9.00;46.90
13440;DHT22;6792;57.698;11.946;2023-03-16T08:42:49;9.10;46.90
13440;DHT22;6792;57.698;11.946;2023-03-16T08:45:18;9.20;46.70
13440;DHT22;6792;57.698;11.946;2023-03-16T08:47:47;9.30;46.60
13440;DHT22;6792;57.698;11.946;2023-03-16T08:50:17;9.30;45.80
13440;DHT22;6792;57.698;11.946;2023-03-16T08:52:48;9.40;46.30
13440;DHT22;6792;57.698;11.946;2023-03-16T08:55:17;9.50;46.00
13440;DHT22;6792;57.698;11.946;2023-03-16T08:57:46;9.60;45.80
13440;DHT22;6792;57.698;11.946;2023-03-16T09:00:17;9.70;45.60
13440;DHT22;6792;57.698;11.946;2023-03-16T09:02:47;9.70;44.80
13440;DHT22;6792;57.698;11.946;2023-03-16T09:05:16;9.80;45.20
13440;DHT22;6792;57.698;11.946;2023-03-16T09:07:45;9.90;45.00
13440;DHT22;6792;57.698;11.946;2023-03-16T09:10:15;10.00;44.80
13440;DHT22;6792;57.698;11.946;2023-03-16T09:12:45;10.10;44.70
13440;DHT22;6792;57.698;11.946;2023-03-16T09:15:14;10.20;44.50
13440;DHT22;6792;57.698;11.946;2023-03-16T09:17:44;10.20;44.30
13440;DHT22;6792;57.698;11.946;2023-03-16T09:20:15;10.30;44.20
13440;DHT22;6792;57.698;11.946;2023-03-16T09:22:46;10.40;44.00
13440;DHT22;6792;57.698;11.946;2023-03-16T09:25:15;10.50;43.90
13440;DHT22;6792;57.698;11.946;2023-03-16T09:27:45;10.60;43.70
13440;DHT22;6792;57.698;11.946;2023-03-16T09:30:14;10.60;43.50
13440;DHT22;6792;57.698;11.946;2023-03-16T09:32:44;10.70;43.40
13440;DHT22;6792;57.698;11.946;2023-03-16T09:35:15;10.70;43.20
13440;DHT22;6792;57.698;11.946;2023-03-16T09:37:44;10.80;43.10
13440;DHT22;6792;57.698;11.946;2023-03-16T09:40:21;10.80;43.00
13440;DHT22;6792;57.698;11.946;2023-03-16T09:42:59;10.90;42.80
13440;DHT22;6792;57.698;11.946;2023-03-16T09:45:33;10.90;42.10
13440;DHT22;6792;57.698;11.946;2023-03-16T09:48:05;11.00;42.70
13440;DHT22;6792;57.698;11.946;2023-03-16T09:50:38;11.10;42.50
13440;DHT22;6792;57.698;11.946;2023-03-16T09:53:13;11.10;42.40
13440;DHT22;6792;57.698;11.946;2023-03-16T09:55:45;11.20;42.40
13440;DHT22;6792;57.698;11.946;2023-03-16T09:58:18;11.20;42.30
13440;DHT22;6792;57.698;11.946;2023-03-16T10:00:52;11.30;42.20
13440;DHT22;6792;57.698;11.946;2023-03-16T10:03:29;11.40;42.20
13440;DHT22;6792;57.698;11.946;2023-03-16T10:06:00;11.40;42.60
13440;DHT22;6792;57.698;11.946;2023-03-16T10:08:34;11.50;41.90
13440;DHT22;6792;57.698;11.946;2023-03-16T10:11:16;11.50;41.70
13440;DHT22;6792;57.698;11.946;2023-03-16T10:13:48;11.60;41.60
13440;DHT22;6792;57.698;11.946;2023-03-16T10:16:21;11.60;41.40
13440;DHT22;6792;57.698;11.946;2023-03-16T10:18:56;11.60;41.20
13440;DHT22;6792;57.698;11.946;2023-03-16T10:21:26;11.60;41.10
13440;DHT22;6792;57.698;11.946;2023-03-16T10:23:58;11.70;40.90
13440;DHT22;6792;57.698;11.946;2023-03-16T10:26:36;11.70;40.70
13440;DHT22;6792;57.698;11.946;2023-03-16T10:29:09;11.80;39.90
13440;DHT22;6792;57.698;11.946;2023-03-16T10:31:41;11.80;40.50
13440;DHT22;6792;57.698;11.946;2023-03-16T10:34:10;11.90;39.70
13440;DHT22;6792;57.698;11.946;2023-03-16T10:36:42;11.90;40.20
13440;DHT22;6792;57.698;11.946;2023-03-16T10:39:13;12.00;40.00
13440;DHT22;6792;57.698;11.946;2023-03-16T10:41:46;12.00;39.90
13440;DHT22;6792;57.698;11.946;2023-03-16T10:44:21;12.10;39.80
13440;DHT22;6792;57.698;11.946;2023-03-16T10:46:58;12.10;40.20
13440;DHT22;6792;57.698;11.946;2023-03-16T10:49:34;12.20;39.60
13440;DHT22;6792;57.698;11.946;2023-03-16T10:52:05;12.20;39.40
13440;DHT22;6792;57.698;11.946;2023-03-16T10:54:35;12.20;39.10
13440;DHT22;6792;57.698;11.946;2023-03-16T10:57:18;12.30;39.10
13440;DHT22;6792;57.698;11.946;2023-03-16T10:59:49;12.30;38.90
13440;DHT22;6792;57.698;11.946;2023-03-16T11:02:21;12.40;38.90
13440;DHT22;6792;57.698;11.946;2023-03-16T11:04:52;12.40;38.70
13440;DHT22;6792;57.698;11.946;2023-03-16T11:07:22;12.50;38.50
13440;DHT22;6792;57.698;11.946;2023-03-16T11:09:52;12.50;38.30
13440;DHT22;6792;57.698;11.946;2023-03-16T11:12:25;12.60;38.30
13440;DHT22;6792;57.698;11.946;2023-03-16T11:15:00;12.60;38.10
13440;DHT22;6792;57.698;11.946;2023-03-16T11:17:33;12.70;37.90
13440;DHT22;6792;57.698;11.946;2023-03-16T11:20:05;12.70;37.90
13440;DHT22;6792;57.698;11.946;2023-03-16T11:22:38;12.70;37.60
13440;DHT22;6792;57.698;11.946;2023-03-16T11:25:12;12.70;37.40
13440;DHT22;6792;57.698;11.946;2023-03-16T11:27:46;12.80;36.70
13440;DHT22;6792;57.698;11.946;2023-03-16T11:30:18;12.70;36.60
13440;DHT22;6792;57.698;11.946;2023-03-16T11:32:50;12.80;37.10
13440;DHT22;6792;57.698;11.946;2023-03-16T11:35:22;12.80;37.00
13440;DHT22;6792;57.698;11.946;2023-03-16T11:38:01;12.80;36.30
13440;DHT22;6792;57.698;11.946;2023-03-16T11:40:39;12.90;36.70
13440;DHT22;6792;57.698;11.946;2023-03-16T11:43:17;12.90;36.60
13440;DHT22;6792;57.698;11.946;2023-03-16T11:45:50;12.90;35.80
13440;DHT22;6792;57.698;11.946;2023-03-16T11:48:28;12.90;36.50
13440;DHT22;6792;57.698;11.946;2023-03-16T11:51:04;12.90;36.30
13440;DHT22;6792;57.698;11.946;2023-03-16T11:53:47;12.90;36.30
13440;DHT22;6792;57.698;11.946;2023-03-16T11:56:27;12.90;36.20
13440;DHT22;6792;57.698;11.946;2023-03-16T12:02:31;12.90;36.00
13440;DHT22;6792;57.698;11.946;2023-03-16T12:08:42;12.90;35.00
13440;DHT22;6792;57.698;11.946;2023-03-16T12:11:13;12.90;35.90
13440;DHT22;6792;57.698;11.946;2023-03-16T12:13:57;12.90;35.80
13440;DHT22;6792;57.698;11.946;2023-03-16T12:16:32;12.90;35.80
13440;DHT22;6792;57.698;11.946;2023-03-16T12:19:05;12.90;35.60
13440;DHT22;6792;57.698;11.946;2023-03-16T12:21:38;13.00;35.60
13440;DHT22;6792;57.698;11.946;2023-03-16T12:24:12;13.00;35.60
13440;DHT22;6792;57.698;11.946;2023-03-16T12:26:43;13.10;35.50
13440;DHT22;6792;57.698;11.946;2023-03-16T12:29:18;13.10;35.40
13440;DHT22;6792;57.698;11.946;2023-03-16T12:31:50;13.10;35.10
13440;DHT22;6792;57.698;11.946;2023-03-16T12:34:25;13.20;35.00
13440;DHT22;6792;57.698;11.946;2023-03-16T12:37:01;13.20;34.90
13440;DHT22;6792;57.698;11.946;2023-03-16T12:39:41;13.20;34.30
13440;DHT22;6792;57.698;11.946;2023-03-16T12:42:26;13.30;34.20
13440;DHT22;6792;57.698;11.946;2023-03-16T12:44:59;13.40;34.90
13440;DHT22;6792;57.698;11.946;2023-03-16T12:47:30;13.40;34.70
13440;DHT22;6792;57.698;11.946;2023-03-16T12:50:09;13.40;34.50
13440;DHT22;6792;57.698;11.946;2023-03-16T12:52:43;13.40;34.40
13440;DHT22;6792;57.698;11.946;2023-03-16T12:55:15;13.50;34.30
13440;DHT22;6792;57.698;11.946;2023-03-16T12:57:45;13.50;34.20
13440;DHT22;6792;57.698;11.946;2023-03-16T13:00:17;13.60;34.10
13440;DHT22;6792;57.698;11.946;2023-03-16T13:02:53;13.60;34.00
13440;DHT22;6792;57.698;11.946;2023-03-16T13:05:31;13.60;33.80
13440;DHT22;6792;57.698;11.946;2023-03-16T13:08:07;13.70;33.60
13440;DHT22;6792;57.698;11.946;2023-03-16T13:10:39;13.70;33.40
13440;DHT22;6792;57.698;11.946;2023-03-16T13:13:09;13.60;32.70
13440;DHT22;6792;57.698;11.946;2023-03-16T13:15:39;13.60;33.20
13440;DHT22;6792;57.698;11.946;2023-03-16T13:18:22;13.60;33.10
13440;DHT22;6792;57.698;11.946;2023-03-16T13:20:57;13.70;33.00
13440;DHT22;6792;57.698;11.946;2023-03-16T13:23:28;13.60;33.00
13440;DHT22;6792;57.698;11.946;2023-03-16T13:26:11;13.60;33.40
13440;DHT22;6792;57.698;11.946;2023-03-16T13:28:43;13.60;32.60
13440;DHT22;6792;57.698;11.946;2023-03-16T13:31:24;13.50;32.50
13440;DHT22;6792;57.698;11.946;2023-03-16T13:33:55;13.50;31.70
13440;DHT22;6792;57.698;11.946;2023-03-16T13:36:27;13.50;31.90
13440;DHT22;6792;57.698;11.946;2023-03-16T13:39:01;13.50;32.20
13440;DHT22;6792;57.698;11.946;2023-03-16T13:41:30;13.40;32.10
13440;DHT22;6792;57.698;11.946;2023-03-16T13:43:59;13.40;32.60
13440;DHT22;6792;57.698;11.946;2023-03-16T13:46:30;13.40;31.90
13440;DHT22;6792;57.698;11.946;2023-03-16T13:48:59;13.40;31.80
13440;DHT22;6792;57.698;11.946;2023-03-16T13:51:31;13.40;31.80
13440;DHT22;6792;57.698;11.946;2023-03-16T13:54:06;13.40;31.70
13440;DHT22;6792;57.698;11.946;2023-03-16T13:56:36;13.30;31.00
13440;DHT22;6792;57.698;11.946;2023-03-16T13:59:08;13.30;31.60
13440;DHT22;6792;57.698;11.946;2023-03-16T14:01:38;13.30;31.50
13440;DHT22;6792;57.698;11.946;2023-03-16T14:04:11;13.30;31.40
13440;DHT22;6792;57.698;11.946;2023-03-16T14:06:51;13.30;31.40
13440;DHT22;6792;57.698;11.946;2023-03-16T14:09:23;13.30;31.40
13440;DHT22;6792;57.698;11.946;2023-03-16T14:11:54;13.30;31.70
13440;DHT22;6792;57.698;11.946;2023-03-16T14:14:27;13.30;31.20
13440;DHT22;6792;57.698;11.946;2023-03-16T14:17:02;13.30;31.10
13440;DHT22;6792;57.698;11.946;2023-03-16T14:19:35;13.30;31.10
13440;DHT22;6792;57.698;11.946;2023-03-16T14:22:12;13.20;31.00
13440;DHT22;6792;57.698;11.946;2023-03-16T14:24:41;13.20;31.10
13440;DHT22;6792;57.698;11.946;2023-03-16T14:27:19;13.20;31.10
13440;DHT22;6792;57.698;11.946;2023-03-16T14:29:56;13.20;31.10
13440;DHT22;6792;57.698;11.946;2023-03-16T14:32:26;13.10;31.10
13440;DHT22;6792;57.698;11.946;2023-03-16T14:35:12;13.10;31.00
13440;DHT22;6792;57.698;11.946;2023-03-16T14:37:42;13.10;30.30
13440;DHT22;6792;57.698;11.946;2023-03-16T14:40:24;13.00;31.00
13440;DHT22;6792;57.698;11.946;2023-03-16T14:42:55;13.00;31.00
13440;DHT22;6792;57.698;11.946;2023-03-16T14:45:30;13.00;31.00
13440;DHT22;6792;57.698;11.946;2023-03-16T14:48:05;13.00;31.00
13440;DHT22;6792;57.698;11.946;2023-03-16T14:50:36;13.00;31.00
13440;DHT22;6792;57.698;11.946;2023-03-16T14:53:05;13.00;30.90
13440;DHT22;6792;57.698;11.946;2023-03-16T14:55:35;13.10;30.90
13440;DHT22;6792;57.698;11.946;2023-03-16T14:58:04;13.10;30.90
13440;DHT22;6792;57.698;11.946;2023-03-16T15:00:33;13.10;30.80
13440;DHT22;6792;57.698;11.946;2023-03-16T15:03:04;13.10;30.80
13440;DHT22;6792;57.698;11.946;2023-03-16T15:05:36;13.10;30.70
13440;DHT22;6792;57.698;11.946;2023-03-16T15:08:13;13.10;30.70
13440;DHT22;6792;57.698;11.946;2023-03-16T15:10:42;13.10;30.70
13440;DHT22;6792;57.698;11.946;2023-03-16T15:13:13;13.00;30.80
13440;DHT22;6792;57.698;11.946;2023-03-16T15:15:44;13.00;30.60
13440;DHT22;6792;57.698;11.946;2023-03-16T15:18:15;13.00;30.60
13440;DHT22;6792;57.698;11.946;2023-03-16T15:20:44;13.00;30.50
13440;DHT22;6792;57.698;11.946;2023-03-16T15:23:16;13.00;30.60
13440;DHT22;6792;57.698;11.946;2023-03-16T15:25:48;13.00;30.00
13440;DHT22;6792;57.698;11.946;2023-03-16T15:28:21;13.00;30.50
13440;DHT22;6792;57.698;11.946;2023-03-16T15:30:52;12.90;30.50
13440;DHT22;6792;57.698;11.946;2023-03-16T15:33:22;12.90;30.50
13440;DHT22;6792;57.698;11.946;2023-03-16T15:35:53;12.90;30.00
13440;DHT22;6792;57.698;11.946;2023-03-16T15:38:24;12.90;29.90
13440;DHT22;6792;57.698;11.946;2023-03-16T15:40:54;12.90;30.40
13440;DHT22;6792;57.698;11.946;2023-03-16T15:43:25;12.90;30.40
13440;DHT22;6792;57.698;11.946;2023-03-16T15:45:56;12.90;29.90
13440;DHT22;6792;57.698;11.946;2023-03-16T15:48:26;12.90;30.60
13440;DHT22;6792;57.698;11.946;2023-03-16T15:50:57;12.90;30.30
13440;DHT22;6792;57.698;11.946;2023-03-16T15:53:29;12.90;29.80
13440;DHT22;6792;57.698;11.946;2023-03-16T15:56:01;12.80;30.30
13440;DHT22;6792;57.698;11.946;2023-03-16T15:58:32;12.80;29.90
13440;DHT22;6792;57.698;11.946;2023-03-16T16:01:03;12.80;30.30
13440;DHT22;6792;57.698;11.946;2023-03-16T16:03:33;12.80;29.80
13440;DHT22;6792;57.698;11.946;2023-03-16T16:06:02;12.80;30.10
13440;DHT22;6792;57.698;11.946;2023-03-16T16:08:31;12.80;30.10
13440;DHT22;6792;57.698;11.946;2023-03-16T16:11:00;12.70;29.60
13440;DHT22;6792;57.698;11.946;2023-03-16T16:13:31;12.80;30.00